Time;durP1;ratioP1;P1;durP2;ratioP2;P2;SDS_P1;SDS_P2;PMS_P1;PMS_P2;Temp;Humidity;BMP_temperature;BMP_pressure;BME280_temperature;BME280_humidity;BME280_pressure;Samples;Min_cycle;Max_cycle;Signal;HPM_P1;HPM_P2
2021/12/23 00:01:39;;;;;;;32.13;13.93;;;-4.00;99.90;;;;;;5094032;28;20317;-60
2021/12/23 00:04:05;;;;;;;27.17;12.80;;;-4.10;99.90;;;;;;5094982;28;20203;-59
2021/12/23 00:06:31;;;;;;;30.37;13.00;;;-4.10;99.90;;;;;;5092869;28;20180;-60
2021/12/23 00:09:00;;;;;;;31.83;13.47;;;-4.10;99.90;;;;;;5093645;28;20172;-59
2021/12/23 00:11:27;;;;;;;27.87;11.97;;;-4.10;99.90;;;;;;5083492;28;20546;-61
2021/12/23 00:14:26;;;;;;;31.77;14.03;;;-4.10;99.90;;;;;;5093276;28;20267;-60
2021/12/23 00:24:30;;;;;;;31.03;13.87;;;-4.10;99.90;;;;;;5094133;28;20191;-59
2021/12/23 00:26:55;;;;;;;28.07;12.83;;;-4.10;99.90;;;;;;5094165;28;20180;-60
2021/12/23 00:29:21;;;;;;;29.33;12.93;;;-4.10;99.90;;;;;;5093560;28;20180;-60
2021/12/23 00:31:46;;;;;;;28.40;13.73;;;-4.10;99.90;;;;;;5093827;28;20184;-60
2021/12/23 00:34:12;;;;;;;27.30;12.77;;;-4.10;99.90;;;;;;5094278;28;20164;-60
2021/12/23 00:36:40;;;;;;;25.27;13.00;;;-4.20;99.90;;;;;;5093777;28;20207;-59
2021/12/23 00:39:08;;;;;;;28.20;13.47;;;-4.20;99.90;;;;;;5093778;28;20180;-59
2021/12/23 00:41:33;;;;;;;30.47;13.87;;;-4.20;99.90;;;;;;5093597;28;20531;-59
2021/12/23 00:43:59;;;;;;;33.03;14.17;;;-4.20;99.90;;;;;;5093872;28;20230;-59
2021/12/23 00:46:25;;;;;;;36.53;15.07;;;-4.20;99.90;;;;;;5093219;28;20180;-58
2021/12/23 00:48:50;;;;;;;32.80;15.80;;;-4.20;99.90;;;;;;5093925;28;20180;-59
2021/12/23 00:51:16;;;;;;;34.93;15.07;;;-4.20;99.90;;;;;;5093130;28;20273;-59
2021/12/23 00:53:42;;;;;;;39.40;16.00;;;-4.20;99.90;;;;;;5093458;28;20184;-59
2021/12/23 00:56:11;;;;;;;37.10;16.00;;;-4.30;99.90;;;;;;5093168;28;20186;-59
2021/12/23 00:58:37;;;;;;;38.47;16.20;;;-4.30;99.90;;;;;;5092141;28;20243;-60
2021/12/23 01:01:04;;;;;;;38.80;16.30;;;-4.30;99.90;;;;;;5093511;28;20627;-59
2021/12/23 01:03:30;;;;;;;35.17;16.67;;;-4.30;99.90;;;;;;5093727;28;20180;-59
2021/12/23 01:05:56;;;;;;;44.17;18.00;;;-4.30;99.90;;;;;;5093162;28;20200;-59
2021/12/23 01:08:21;;;;;;;44.23;18.13;;;-4.30;99.90;;;;;;5093353;28;20191;-59
2021/12/23 01:10:52;;;;;;;47.63;17.87;;;-4.20;99.90;;;;;;5093149;28;20180;-59
2021/12/23 01:13:19;;;;;;;40.60;17.67;;;-4.20;99.90;;;;;;5093204;28;20183;-60
2021/12/23 01:16:00;;;;;;;42.23;17.33;;;-4.20;99.90;;;;;;5092990;28;20538;-59
2021/12/23 01:18:30;;;;;;;35.10;16.03;;;-4.20;99.90;;;;;;5093517;28;20295;-59
2021/12/23 01:21:04;;;;;;;43.40;18.07;;;-4.20;99.90;;;;;;5092909;28;20259;-59
2021/12/23 01:23:31;;;;;;;45.07;18.70;;;-4.20;99.90;;;;;;5093020;28;20558;-59
2021/12/23 01:25:57;;;;;;;55.83;20.93;;;-4.20;99.90;;;;;;5091605;28;20176;-59
2021/12/23 01:28:25;;;;;;;52.27;20.83;;;-4.20;99.90;;;;;;5091115;28;20662;-60
2021/12/23 01:30:51;;;;;;;42.33;19.23;;;-4.20;99.90;;;;;;5092360;28;20207;-60
2021/12/23 01:33:17;;;;;;;42.33;18.67;;;-4.20;99.90;;;;;;5093276;28;20169;-60
2021/12/23 01:35:45;;;;;;;44.13;18.13;;;-4.10;99.90;;;;;;5092791;28;20180;-60
2021/12/23 01:38:11;;;;;;;43.37;17.20;;;-4.10;99.90;;;;;;5093145;28;20212;-60
2021/12/23 01:40:37;;;;;;;37.87;17.57;;;-4.10;99.90;;;;;;5092048;28;20206;-60
2021/12/23 01:43:04;;;;;;;39.07;17.20;;;-4.10;99.90;;;;;;5092202;28;20180;-60
2021/12/23 01:45:33;;;;;;;38.10;16.13;;;-4.10;99.90;;;;;;5092346;28;20176;-60
2021/12/23 01:47:59;;;;;;;36.30;17.20;;;-4.10;99.90;;;;;;5092815;28;20673;-60
2021/12/23 01:50:27;;;;;;;42.83;18.83;;;-4.10;99.90;;;;;;5091819;28;20180;-60
2021/12/23 01:52:55;;;;;;;85.63;28.73;;;-4.00;99.90;;;;;;5091194;28;20188;-60
2021/12/23 01:55:20;;;;;;;75.30;27.83;;;-4.00;99.90;;;;;;5092291;28;21061;-60
2021/12/23 01:57:48;;;;;;;67.60;26.70;;;-4.00;99.90;;;;;;5092067;28;20231;-60
2021/12/23 02:00:16;;;;;;;51.47;22.77;;;-4.00;99.90;;;;;;5092744;28;20390;-60
2021/12/23 02:02:42;;;;;;;50.73;21.40;;;-4.00;99.90;;;;;;5092281;28;20180;-60
2021/12/23 02:05:09;;;;;;;39.73;18.17;;;-4.00;99.90;;;;;;5092201;28;20184;-61
2021/12/23 02:07:35;;;;;;;54.27;22.10;;;-3.90;99.90;;;;;;5090872;28;20317;-60
2021/12/23 02:10:01;;;;;;;50.50;21.03;;;-3.90;99.90;;;;;;5092011;28;20194;-60
2021/12/23 02:12:27;;;;;;;58.03;21.53;;;-3.90;99.90;;;;;;5091379;28;20747;-60
2021/12/23 02:14:53;;;;;;;52.93;20.90;;;-3.90;99.90;;;;;;5092576;28;20180;-60
2021/12/23 02:17:19;;;;;;;61.77;23.10;;;-3.90;99.90;;;;;;5091502;28;20235;-60
2021/12/23 02:19:44;;;;;;;74.60;27.83;;;-3.80;99.90;;;;;;5092321;28;20264;-60
2021/12/23 02:22:10;;;;;;;89.00;31.17;;;-3.80;99.90;;;;;;5091749;28;20199;-60
2021/12/23 02:24:37;;;;;;;80.17;28.03;;;-3.80;99.90;;;;;;5091760;28;20184;-60
2021/12/23 02:27:02;;;;;;;87.73;29.13;;;-3.80;99.90;;;;;;5092020;28;20636;-61
2021/12/23 02:29:28;;;;;;;90.13;30.83;;;-3.80;99.90;;;;;;5091774;28;20188;-60
2021/12/23 02:31:54;;;;;;;61.60;24.07;;;-3.70;99.90;;;;;;5090785;28;20188;-60
2021/12/23 02:34:21;;;;;;;47.53;19.17;;;-3.70;99.90;;;;;;5090998;28;20179;-60
2021/12/23 02:36:55;;;;;;;40.07;16.00;;;-3.70;99.90;;;;;;5088340;28;20269;-60
2021/12/23 02:39:22;;;;;;;35.63;16.07;;;-3.70;99.90;;;;;;5090930;28;20191;-60
2021/12/23 02:41:48;;;;;;;36.33;15.90;;;-3.70;99.90;;;;;;5091935;28;20634;-60
2021/12/23 02:44:15;;;;;;;32.73;14.60;;;-3.70;99.90;;;;;;5091513;28;20590;-60
2021/12/23 02:46:41;;;;;;;33.13;15.23;;;-3.70;99.90;;;;;;5091651;28;20180;-60
2021/12/23 02:49:07;;;;;;;32.20;14.40;;;-3.70;99.90;;;;;;5091619;28;20222;-60
2021/12/23 02:51:33;;;;;;;32.13;13.80;;;-3.70;99.90;;;;;;5091349;28;20267;-60
2021/12/23 02:53:59;;;;;;;34.53;14.80;;;-3.60;99.90;;;;;;5091256;28;20222;-60
2021/12/23 02:56:24;;;;;;;33.57;14.20;;;-3.60;99.90;;;;;;5090717;28;20306;-60
2021/12/23 02:58:50;;;;;;;31.13;14.20;;;-3.60;99.90;;;;;;5091595;28;20184;-60
2021/12/23 03:01:19;;;;;;;31.43;14.40;;;-3.60;99.90;;;;;;5091559;28;20199;-60
2021/12/23 03:03:45;;;;;;;42.50;17.23;;;-3.60;99.90;;;;;;5090845;28;20188;-60
2021/12/23 03:06:11;;;;;;;61.30;22.47;;;-3.60;99.90;;;;;;5091594;28;20540;-60
2021/12/23 03:08:41;;;;;;;56.93;22.57;;;-3.60;99.90;;;;;;5091094;28;20187;-60
2021/12/23 03:11:09;;;;;;;58.03;21.43;;;-3.60;99.90;;;;;;5091422;28;20203;-60
2021/12/23 03:13:35;;;;;;;46.73;19.03;;;-3.60;99.90;;;;;;5090705;28;20180;-60
2021/12/23 03:16:01;;;;;;;41.90;17.50;;;-3.60;99.90;;;;;;5090140;28;20237;-60
2021/12/23 03:18:27;;;;;;;37.63;16.57;;;-3.50;99.90;;;;;;5091367;28;20223;-60
2021/12/23 03:20:53;;;;;;;41.97;18.77;;;-3.50;99.90;;;;;;5091355;28;20188;-60
2021/12/23 03:23:18;;;;;;;48.40;19.43;;;-3.50;99.90;;;;;;5090962;28;20184;-60
2021/12/23 03:25:44;;;;;;;49.20;19.17;;;-3.50;99.90;;;;;;5091258;28;20184;-60
2021/12/23 03:28:09;;;;;;;46.80;18.33;;;-3.50;99.90;;;;;;5090810;28;20173;-61
2021/12/23 03:30:35;;;;;;;49.03;18.37;;;-3.50;99.90;;;;;;5090634;28;20702;-60
2021/12/23 03:33:01;;;;;;;40.00;16.13;;;-3.40;99.90;;;;;;5091136;28;20179;-60
2021/12/23 03:35:26;;;;;;;37.97;16.00;;;-3.50;99.90;;;;;;5090541;28;20267;-60
2021/12/23 03:37:53;;;;;;;34.97;17.20;;;-3.40;99.90;;;;;;5090697;28;20220;-60
2021/12/23 03:40:19;;;;;;;58.13;22.60;;;-3.40;99.90;;;;;;5090546;28;20226;-60
2021/12/23 03:42:45;;;;;;;47.63;18.87;;;-3.30;99.90;;;;;;5090951;28;20666;-60
2021/12/23 03:45:11;;;;;;;38.13;15.80;;;-3.30;99.90;;;;;;5090485;28;20208;-60
2021/12/23 03:47:37;;;;;;;33.37;15.70;;;-3.30;99.90;;;;;;5085893;28;20204;-60
2021/12/23 03:50:04;;;;;;;31.93;15.47;;;-3.30;99.90;;;;;;5090557;28;20180;-60
2021/12/23 03:52:29;;;;;;;36.63;14.40;;;-3.30;99.90;;;;;;5090771;28;20647;-60
2021/12/23 03:54:55;;;;;;;30.53;13.83;;;-3.30;99.90;;;;;;5090494;28;20219;-60
2021/12/23 03:57:20;;;;;;;33.73;14.80;;;-3.30;99.90;;;;;;5076515;28;20230;-60
2021/12/23 03:59:46;;;;;;;32.40;14.60;;;-3.30;99.90;;;;;;5084883;28;20176;-60
2021/12/23 04:02:12;;;;;;;35.07;14.80;;;-3.20;99.90;;;;;;5086795;28;20189;-60
2021/12/23 04:04:38;;;;;;;41.73;16.67;;;-3.20;99.90;;;;;;5087345;28;20691;-60
2021/12/23 04:07:04;;;;;;;58.83;20.63;;;-3.20;99.90;;;;;;5088118;28;20238;-60
2021/12/23 04:09:29;;;;;;;52.03;20.73;;;-3.20;99.90;;;;;;5094587;28;20188;-60
2021/12/23 04:11:55;;;;;;;61.53;24.43;;;-3.10;99.90;;;;;;5090638;28;20188;-60
2021/12/23 04:14:20;;;;;;;58.53;22.33;;;-3.10;99.90;;;;;;5093318;28;20634;-60
2021/12/23 04:16:46;;;;;;;56.20;22.30;;;-3.10;99.90;;;;;;5079800;28;20212;-60
2021/12/23 04:19:12;;;;;;;46.70;19.03;;;-3.10;99.90;;;;;;5088803;28;20187;-60
2021/12/23 04:21:39;;;;;;;42.30;17.97;;;-3.10;99.90;;;;;;5094148;28;20311;-60
2021/12/23 04:24:05;;;;;;;36.40;15.73;;;-3.10;99.90;;;;;;5093938;28;20180;-60
2021/12/23 04:26:31;;;;;;;49.80;19.47;;;-3.00;99.90;;;;;;5093936;28;20180;-60
2021/12/23 04:28:57;;;;;;;45.57;19.40;;;-3.00;99.90;;;;;;5093982;28;20530;-60
2021/12/23 04:31:24;;;;;;;43.93;17.87;;;-3.00;99.90;;;;;;5093793;28;20536;-60
2021/12/23 04:33:52;;;;;;;43.50;18.43;;;-3.00;99.90;;;;;;5093856;28;20191;-61
2021/12/23 04:36:19;;;;;;;37.03;16.00;;;-3.00;99.90;;;;;;5093651;28;20188;-61
2021/12/23 04:38:46;;;;;;;35.50;14.83;;;-3.00;99.90;;;;;;5093712;28;20227;-60
2021/12/23 04:41:13;;;;;;;36.87;14.97;;;-2.90;99.90;;;;;;5093787;28;20180;-60
2021/12/23 04:43:39;;;;;;;33.93;15.50;;;-2.90;99.90;;;;;;5093800;28;20237;-60
2021/12/23 04:46:05;;;;;;;34.13;15.73;;;-3.00;99.90;;;;;;5093618;28;20184;-60
2021/12/23 04:48:32;;;;;;;33.60;15.03;;;-3.00;99.90;;;;;;5093352;28;20180;-61
2021/12/23 04:50:58;;;;;;;35.57;15.23;;;-3.00;99.90;;;;;;5094003;28;20627;-62
2021/12/23 04:53:24;;;;;;;34.13;14.97;;;-3.00;99.90;;;;;;5093327;28;20220;-62
2021/12/23 04:55:50;;;;;;;36.57;14.97;;;-3.00;99.90;;;;;;5094099;28;20234;-61
2021/12/23 04:58:16;;;;;;;31.37;14.67;;;-3.00;99.90;;;;;;5093503;28;20266;-61
2021/12/23 05:00:47;;;;;;;33.67;15.33;;;-3.10;99.90;;;;;;5093577;28;20176;-61
2021/12/23 05:03:12;;;;;;;31.53;14.63;;;-3.10;99.90;;;;;;5093690;28;20180;-60
2021/12/23 05:05:38;;;;;;;38.97;14.73;;;-3.10;99.90;;;;;;5093741;28;20242;-60
2021/12/23 05:08:04;;;;;;;33.33;14.73;;;-3.10;99.90;;;;;;5093465;28;20199;-60
2021/12/23 05:10:29;;;;;;;34.03;15.07;;;-3.10;99.90;;;;;;5092650;28;20211;-62
2021/12/23 05:12:55;;;;;;;33.00;13.87;;;-3.10;99.90;;;;;;5093752;28;20184;-64
2021/12/23 05:15:21;;;;;;;34.40;15.37;;;-3.10;99.90;;;;;;5093407;28;20168;-62
2021/12/23 05:17:48;;;;;;;34.10;15.73;;;-3.10;99.90;;;;;;5093599;28;20235;-63
2021/12/23 05:20:16;;;;;;;36.50;15.47;;;-3.10;99.90;;;;;;5093210;28;20204;-60
2021/12/23 05:22:41;;;;;;;44.03;18.70;;;-3.10;99.90;;;;;;5093016;28;20737;-60
2021/12/23 05:25:08;;;;;;;42.30;18.20;;;-3.10;99.90;;;;;;5092851;28;20180;-60
2021/12/23 05:27:34;;;;;;;35.97;15.40;;;-3.10;99.90;;;;;;5092803;28;20645;-59
2021/12/23 05:30:01;;;;;;;33.93;15.80;;;-3.10;99.90;;;;;;5092322;28;20255;-60
2021/12/23 05:32:27;;;;;;;30.87;13.80;;;-3.10;99.90;;;;;;5089431;28;20643;-61
2021/12/23 05:34:53;;;;;;;29.47;14.10;;;-3.10;99.90;;;;;;5092645;28;20176;-60
2021/12/23 05:37:18;;;;;;;35.67;16.60;;;-3.00;99.90;;;;;;5091217;28;20300;-60
2021/12/23 05:39:44;;;;;;;34.30;15.27;;;-3.00;99.90;;;;;;5092744;28;20183;-60
2021/12/23 05:42:10;;;;;;;37.87;15.90;;;-3.00;99.90;;;;;;5093182;28;20182;-60
2021/12/23 05:44:35;;;;;;;33.90;16.30;;;-3.00;99.90;;;;;;5103272;28;20183;-60
2021/12/23 05:47:01;;;;;;;34.80;16.20;;;-3.10;99.90;;;;;;5111803;28;20175;-61
2021/12/23 05:49:27;;;;;;;36.40;15.77;;;-3.10;99.90;;;;;;5092771;28;20187;-60
2021/12/23 05:51:52;;;;;;;36.73;16.27;;;-3.10;99.90;;;;;;5093035;28;20180;-59
2021/12/23 05:54:18;;;;;;;38.00;16.10;;;-3.10;99.90;;;;;;5092864;28;20265;-60
2021/12/23 05:56:43;;;;;;;34.77;14.90;;;-3.10;99.90;;;;;;5092570;28;20227;-60
2021/12/23 05:59:09;;;;;;;33.67;14.67;;;-3.10;99.90;;;;;;5092774;28;20205;-60
2021/12/23 06:01:34;;;;;;;36.43;16.20;;;-3.10;99.90;;;;;;5092744;28;20699;-61
2021/12/23 06:04:00;;;;;;;34.77;15.80;;;-3.10;99.90;;;;;;5091869;28;20253;-60
2021/12/23 06:06:26;;;;;;;37.07;16.30;;;-3.10;99.90;;;;;;5092538;28;20191;-59
2021/12/23 06:08:51;;;;;;;34.50;16.17;;;-3.10;99.90;;;;;;5092754;28;20180;-60
2021/12/23 06:11:17;;;;;;;36.63;15.37;;;-3.10;99.90;;;;;;5092123;28;20188;-60
2021/12/23 06:13:42;;;;;;;37.27;16.57;;;-3.10;99.90;;;;;;5092548;28;20229;-60
2021/12/23 06:16:08;;;;;;;39.13;18.43;;;-3.10;99.90;;;;;;5092055;28;20582;-60
2021/12/23 06:18:34;;;;;;;43.27;18.67;;;-3.10;99.90;;;;;;5072165;28;20409;-60
2021/12/23 06:21:00;;;;;;;38.43;17.87;;;-3.10;99.90;;;;;;5076592;28;20184;-60
2021/12/23 06:23:26;;;;;;;39.17;17.13;;;-3.10;99.90;;;;;;5092330;28;20208;-59
2021/12/23 06:25:52;;;;;;;49.33;21.40;;;-3.10;99.90;;;;;;5092099;28;20880;-57
2021/12/23 06:28:18;;;;;;;40.57;18.60;;;-3.20;99.90;;;;;;5090331;28;20180;-58
2021/12/23 06:30:44;;;;;;;41.57;17.63;;;-3.20;99.90;;;;;;5092026;28;20211;-58
2021/12/23 06:33:11;;;;;;;41.93;18.30;;;-3.20;99.90;;;;;;5091691;28;20184;-59
2021/12/23 06:35:37;;;;;;;40.23;17.70;;;-3.20;99.90;;;;;;5092100;28;20274;-58
2021/12/23 06:38:07;;;;;;;41.40;17.40;;;-3.20;99.90;;;;;;5092069;28;20660;-58
2021/12/23 06:40:33;;;;;;;42.23;18.47;;;-3.20;99.90;;;;;;5092173;28;20184;-58
2021/12/23 06:42:59;;;;;;;41.73;18.93;;;-3.20;99.90;;;;;;5092167;28;20187;-58
2021/12/23 06:45:25;;;;;;;46.60;20.10;;;-3.20;99.90;;;;;;5092131;28;20172;-58
2021/12/23 06:47:50;;;;;;;51.67;21.17;;;-3.20;99.90;;;;;;5091786;28;20179;-59
2021/12/23 06:50:18;;;;;;;43.60;20.67;;;-3.20;99.90;;;;;;5092109;28;20237;-58
2021/12/23 06:52:44;;;;;;;45.63;19.17;;;-3.20;99.90;;;;;;5091842;28;20203;-59
2021/12/23 06:55:12;;;;;;;44.47;19.07;;;-3.20;99.90;;;;;;5092024;28;20256;-59
2021/12/23 06:57:40;;;;;;;41.80;17.47;;;-3.20;99.90;;;;;;5091029;28;20231;-59
2021/12/23 07:00:08;;;;;;;40.40;17.07;;;-3.10;99.90;;;;;;5091476;28;20635;-59
2021/12/23 07:02:38;;;;;;;41.03;17.90;;;-3.10;99.90;;;;;;5072826;28;20218;-59
2021/12/23 07:05:04;;;;;;;36.93;17.53;;;-3.20;99.90;;;;;;5092015;28;20255;-59
2021/12/23 07:07:40;;;;;;;38.87;17.50;;;-3.20;99.90;;;;;;5091350;28;20192;-59
2021/12/23 07:10:06;;;;;;;39.27;17.63;;;-3.20;99.90;;;;;;5091999;28;20245;-59
2021/12/23 07:12:32;;;;;;;39.83;17.73;;;-3.10;99.90;;;;;;5091594;28;20180;-60
2021/12/23 07:14:58;;;;;;;39.83;17.53;;;-3.20;99.90;;;;;;5091951;28;20252;-59
2021/12/23 07:17:23;;;;;;;37.73;17.00;;;-3.20;99.90;;;;;;5091139;28;20196;-59
2021/12/23 07:19:49;;;;;;;50.67;21.13;;;-3.20;99.90;;;;;;5091894;28;20199;-59
2021/12/23 07:22:14;;;;;;;60.60;21.10;;;-3.30;99.90;;;;;;5091395;28;20183;-59
2021/12/23 07:24:41;;;;;;;44.53;20.23;;;-3.30;99.90;;;;;;5091579;28;20164;-59
2021/12/23 07:27:07;;;;;;;47.27;18.83;;;-3.20;99.90;;;;;;5091508;28;20203;-59
2021/12/23 07:29:33;;;;;;;40.37;17.20;;;-3.20;99.90;;;;;;5091465;28;20191;-59
2021/12/23 07:31:59;;;;;;;44.47;16.90;;;-3.20;99.90;;;;;;5091227;28;20176;-59
2021/12/23 07:34:25;;;;;;;47.67;15.03;;;-3.20;99.90;;;;;;5091570;28;20207;-57
2021/12/23 07:36:51;;;;;;;36.50;16.50;;;-3.20;99.90;;;;;;5090073;28;20686;-59
2021/12/23 07:39:16;;;;;;;36.90;15.53;;;-3.30;99.90;;;;;;5091936;28;20195;-59
2021/12/23 07:41:42;;;;;;;53.10;20.43;;;-3.30;99.90;;;;;;5095211;28;20176;-59
2021/12/23 07:44:09;;;;;;;59.87;24.47;;;-3.20;99.90;;;;;;5095515;28;20602;-58
2021/12/23 07:46:37;;;;;;;62.17;26.53;;;-3.20;99.90;;;;;;5095012;28;20176;-58
2021/12/23 07:49:03;;;;;;;57.80;25.90;;;-3.20;99.90;;;;;;5095096;28;20184;-58
2021/12/23 07:51:29;;;;;;;43.20;21.60;;;-3.10;99.90;;;;;;5093654;28;20658;-60
2021/12/23 07:53:55;;;;;;;45.10;21.73;;;-3.10;99.90;;;;;;5094907;28;20176;-58
2021/12/23 07:56:22;;;;;;;72.33;26.57;;;-3.00;99.90;;;;;;5094512;28;20255;-59
2021/12/23 07:58:48;;;;;;;98.03;34.23;;;-3.00;99.90;;;;;;5094394;28;20218;-59
2021/12/23 08:01:14;;;;;;;401.83;109.47;;;-3.00;99.90;;;;;;5094116;28;20207;-59
2021/12/23 08:03:39;;;;;;;203.10;58.13;;;-2.90;99.90;;;;;;5093919;28;20176;-58
2021/12/23 08:06:05;;;;;;;70.83;28.10;;;-2.90;99.90;;;;;;5095079;28;20177;-57
2021/12/23 08:08:30;;;;;;;47.93;20.20;;;-2.80;99.90;;;;;;5094545;28;20172;-59
2021/12/23 08:10:56;;;;;;;38.80;16.50;;;-2.80;99.90;;;;;;5095003;28;20182;-59
2021/12/23 08:13:22;;;;;;;40.17;17.70;;;-2.70;99.90;;;;;;5094446;28;20693;-59
2021/12/23 08:15:47;;;;;;;41.00;18.60;;;-2.70;99.90;;;;;;5095043;28;20176;-59
2021/12/23 08:18:13;;;;;;;44.37;20.43;;;-2.60;99.90;;;;;;5094423;28;20211;-60
2021/12/23 08:20:39;;;;;;;43.90;21.60;;;-2.60;99.90;;;;;;5094600;28;20282;-60
2021/12/23 08:23:05;;;;;;;41.47;20.97;;;-2.60;99.90;;;;;;5094693;28;20555;-59
2021/12/23 08:25:31;;;;;;;47.40;23.83;;;-2.60;99.90;;;;;;5094057;28;20187;-59
2021/12/23 08:27:57;;;;;;;44.50;21.70;;;-2.60;99.90;;;;;;5094704;28;20172;-59
2021/12/23 08:30:22;;;;;;;47.73;22.13;;;-2.50;99.90;;;;;;5094058;28;20661;-59
2021/12/23 08:32:49;;;;;;;41.47;20.27;;;-2.50;99.90;;;;;;5094282;28;20191;-59
2021/12/23 08:35:16;;;;;;;42.47;21.17;;;-2.40;99.90;;;;;;5094434;28;20549;-59
2021/12/23 08:37:46;;;;;;;38.63;18.13;;;-2.40;99.90;;;;;;5094004;28;20298;-59
2021/12/23 08:40:15;;;;;;;40.37;18.37;;;-2.40;99.90;;;;;;5094183;28;20180;-59
2021/12/23 08:42:41;;;;;;;39.43;17.93;;;-2.30;99.90;;;;;;5093030;28;20172;-59
2021/12/23 08:45:07;;;;;;;37.23;17.13;;;-2.30;99.90;;;;;;5093951;28;20176;-59
2021/12/23 08:47:34;;;;;;;37.37;16.50;;;-2.20;99.90;;;;;;5093748;28;20763;-59
2021/12/23 08:50:01;;;;;;;40.07;16.83;;;-2.10;99.90;;;;;;5093447;28;20255;-60
2021/12/23 08:52:27;;;;;;;40.57;18.53;;;-2.00;99.90;;;;;;5093869;28;20290;-58
2021/12/23 08:54:53;;;;;;;38.37;17.43;;;-1.90;99.90;;;;;;5093229;28;20718;-59
2021/12/23 08:57:18;;;;;;;39.63;17.57;;;-1.80;99.90;;;;;;5093435;28;20323;-58
2021/12/23 08:59:45;;;;;;;37.93;18.13;;;-1.80;99.90;;;;;;5094186;28;20264;-58
2021/12/23 09:02:11;;;;;;;38.53;17.77;;;-1.70;99.90;;;;;;5093943;28;20209;-58
2021/12/23 09:04:38;;;;;;;35.60;17.67;;;-1.70;99.90;;;;;;5093979;28;20172;-59
2021/12/23 09:07:04;;;;;;;49.83;20.40;;;-1.60;99.90;;;;;;5093952;28;20180;-60
2021/12/23 09:09:32;;;;;;;38.10;18.23;;;-1.60;99.90;;;;;;5093805;28;20183;-60
2021/12/23 09:11:58;;;;;;;39.33;18.47;;;-1.70;99.90;;;;;;5093791;28;20172;-60
2021/12/23 09:14:24;;;;;;;43.60;18.07;;;-1.70;99.90;;;;;;5095455;28;20176;-59
2021/12/23 09:16:49;;;;;;;39.37;18.47;;;-1.70;99.90;;;;;;5114003;28;20167;-59
2021/12/23 09:19:15;;;;;;;43.13;19.40;;;-1.70;99.90;;;;;;5111909;28;20638;-59
2021/12/23 09:21:41;;;;;;;38.97;18.03;;;-1.60;99.90;;;;;;5093598;28;20733;-59
2021/12/23 09:24:07;;;;;;;42.57;18.33;;;-1.60;99.90;;;;;;5093343;28;20184;-59
2021/12/23 09:26:37;;;;;;;36.07;16.87;;;-1.50;99.90;;;;;;5093116;28;20184;-58
2021/12/23 09:29:12;;;;;;;46.07;20.80;;;-1.50;99.90;;;;;;5093396;28;20663;-60
2021/12/23 09:34:25;;;;;;;37.23;16.70;;;-1.40;99.90;;;;;;5093267;28;20179;-59
2021/12/23 09:36:50;;;;;;;32.07;16.03;;;-1.30;99.90;;;;;;5092646;28;20177;-59
2021/12/23 09:39:16;;;;;;;33.20;15.80;;;-1.20;99.90;;;;;;5093124;28;20184;-60
2021/12/23 09:41:44;;;;;;;32.07;15.33;;;-1.20;99.90;;;;;;5092874;28;20230;-60
2021/12/23 09:44:10;;;;;;;33.63;15.77;;;-1.10;99.90;;;;;;5092797;28;20180;-60
2021/12/23 09:46:36;;;;;;;29.20;14.67;;;-1.10;99.90;;;;;;5092857;28;20191;-60
2021/12/23 09:49:07;;;;;;;32.13;15.37;;;-1.00;99.90;;;;;;5092666;28;20565;-60
2021/12/23 09:51:34;;;;;;;32.80;14.90;;;-1.00;99.90;;;;;;5092485;28;20240;-59
2021/12/23 09:54:03;;;;;;;30.93;14.63;;;-1.00;99.90;;;;;;5091156;28;20196;-60
2021/12/23 09:56:31;;;;;;;32.93;15.27;;;-0.90;99.90;;;;;;5092408;28;20241;-60
2021/12/23 09:58:58;;;;;;;35.97;15.90;;;-0.80;99.90;;;;;;5092504;28;20208;-60
2021/12/23 10:01:26;;;;;;;29.33;14.30;;;-0.80;99.90;;;;;;5092250;28;20259;-60
2021/12/23 10:03:51;;;;;;;31.93;15.53;;;-0.70;99.90;;;;;;5091834;28;20195;-60
2021/12/23 10:06:17;;;;;;;34.47;16.87;;;-0.70;99.90;;;;;;5092378;28;20172;-60
2021/12/23 10:08:45;;;;;;;35.30;15.97;;;-0.70;99.90;;;;;;5092654;28;20172;-60
2021/12/23 10:11:20;;;;;;;32.30;15.70;;;-0.70;99.90;;;;;;5091932;28;20187;-60
2021/12/23 10:30:26;;;;;;;32.70;15.30;;;-0.40;99.90;;;;;;5072169;28;20204;-59
2021/12/23 10:38:23;;;;;;;37.33;15.97;;;-0.20;99.90;;;;;;5081156;28;20211;-59
2021/12/23 10:40:52;;;;;;;32.10;14.90;;;-0.20;99.90;;;;;;5092233;28;20222;-59
2021/12/23 10:43:25;;;;;;;32.20;15.50;;;-0.10;99.90;;;;;;5092088;28;20648;-59
2021/12/23 10:45:56;;;;;;;31.27;15.97;;;-0.10;99.90;;;;;;5092234;28;20175;-59
2021/12/23 10:48:29;;;;;;;35.40;15.23;;;-0.10;99.90;;;;;;5092004;28;20259;-59
2021/12/23 10:51:05;;;;;;;35.37;15.33;;;0.00;99.90;;;;;;5092115;28;20183;-59
2021/12/23 10:53:49;;;;;;;29.53;14.43;;;0.00;99.90;;;;;;5091884;28;20250;-59
2021/12/23 10:59:20;;;;;;;30.90;14.70;;;0.10;99.90;;;;;;5091830;28;20285;-59
2021/12/23 11:02:32;;;;;;;30.77;13.83;;;0.20;99.90;;;;;;5090180;28;20585;-59
2021/12/23 11:05:12;;;;;;;30.60;15.00;;;0.30;99.90;;;;;;5092056;28;20179;-59
2021/12/23 11:07:45;;;;;;;31.10;14.30;;;0.30;99.90;;;;;;5091698;28;20179;-59
2021/12/23 11:10:23;;;;;;;33.07;15.27;;;0.30;99.90;;;;;;5091543;28;20214;-60
2021/12/23 11:37:58;;;;;;;29.40;13.47;;;0.60;99.90;;;;;;5094828;28;20605;-60
2021/12/23 11:45:31;;;;;;;29.50;14.80;;;0.70;99.90;;;;;;5094753;28;20175;-60
2021/12/23 11:47:57;;;;;;;31.07;14.47;;;0.70;99.90;;;;;;5095437;28;20765;-60
2021/12/23 11:50:32;;;;;;;35.23;15.27;;;0.80;99.90;;;;;;5095217;28;20267;-59
2021/12/23 11:52:58;;;;;;;29.20;14.50;;;0.80;99.90;;;;;;5095354;28;20180;-59
2021/12/23 11:55:24;;;;;;;30.93;15.40;;;0.90;99.90;;;;;;5095441;28;20180;-60
2021/12/23 11:57:52;;;;;;;34.47;16.70;;;0.90;99.90;;;;;;5095191;28;20256;-60
2021/12/23 12:00:32;;;;;;;29.77;14.57;;;1.00;99.90;;;;;;5095133;28;20552;-61
2021/12/23 12:03:06;;;;;;;31.60;15.77;;;1.10;99.90;;;;;;5095126;28;20518;-61
2021/12/23 12:05:33;;;;;;;34.23;16.77;;;1.20;99.90;;;;;;5093781;28;20212;-59
2021/12/23 12:08:11;;;;;;;35.90;16.57;;;1.20;99.90;;;;;;5095315;28;20180;-60
2021/12/23 12:10:40;;;;;;;34.80;18.10;;;1.30;99.90;;;;;;5094905;28;20179;-60
2021/12/23 12:13:08;;;;;;;37.57;17.60;;;1.30;99.90;;;;;;5094465;28;20188;-60
2021/12/23 12:15:41;;;;;;;35.97;16.23;;;1.40;99.90;;;;;;5096755;28;20197;-60
2021/12/23 12:18:13;;;;;;;38.07;16.03;;;1.40;99.90;;;;;;5115062;28;20207;-59
2021/12/23 12:20:48;;;;;;;34.13;14.97;;;1.40;99.90;;;;;;5103709;28;20184;-59
2021/12/23 12:23:14;;;;;;;27.05;14.48;;;1.40;99.90;;;;;;5094556;28;20187;-60
2021/12/23 12:25:48;;;;;;;37.10;15.80;;;1.40;99.90;;;;;;5093921;28;20186;-60
2021/12/23 12:28:46;;;;;;;34.37;15.07;;;1.40;99.90;;;;;;5094671;28;20245;-60
2021/12/23 12:31:19;;;;;;;35.73;14.10;;;1.40;99.90;;;;;;5091687;28;20197;-60
2021/12/23 12:33:54;;;;;;;32.43;15.30;;;1.30;99.90;;;;;;5092996;28;20276;-60
2021/12/23 12:36:21;;;;;;;29.08;14.77;;;1.30;99.90;;;;;;5094491;28;20671;-61
2021/12/23 12:39:00;;;;;;;34.28;15.35;;;1.30;99.90;;;;;;5094584;28;20219;-60
2021/12/23 12:41:35;;;;;;;31.37;16.40;;;1.30;99.90;;;;;;5094295;28;20176;-60
2021/12/23 12:44:07;;;;;;;34.53;14.53;;;1.30;99.90;;;;;;5088495;28;20202;-60
2021/12/23 12:47:08;;;;;;;35.53;16.07;;;1.30;99.90;;;;;;5094259;28;20180;-60
2021/12/23 12:49:44;;;;;;;37.17;16.77;;;1.20;99.90;;;;;;5094105;28;20595;-61
2021/12/23 12:52:22;;;;;;;34.43;16.73;;;1.20;99.90;;;;;;5094134;28;20187;-60
2021/12/23 12:54:54;;;;;;;35.73;16.13;;;1.20;99.90;;;;;;5094086;28;20202;-60
2021/12/23 12:57:23;;;;;;;44.40;19.73;;;1.10;99.90;;;;;;5093779;28;20220;-60
2021/12/23 12:59:51;;;;;;;35.07;17.50;;;1.10;99.90;;;;;;5093267;28;20172;-60
2021/12/23 13:02:27;;;;;;;54.43;22.87;;;1.10;99.90;;;;;;5091117;28;20180;-60
2021/12/23 13:05:10;;;;;;;40.03;19.00;;;1.10;99.90;;;;;;5073881;28;20234;-60
2021/12/23 13:07:38;;;;;;;45.00;21.07;;;1.10;99.90;;;;;;5093594;28;20269;-59
2021/12/23 13:10:13;;;;;;;33.83;14.87;;;1.10;99.90;;;;;;5094064;28;20215;-59
2021/12/23 13:12:50;;;;;;;44.80;20.13;;;1.10;99.90;;;;;;5094177;28;20176;-59
2021/12/23 13:15:35;;;;;;;58.10;24.20;;;1.10;99.90;;;;;;5093849;28;20176;-59
2021/12/23 13:18:18;;;;;;;36.53;17.73;;;1.10;99.90;;;;;;5094006;28;20208;-59
2021/12/23 13:20:48;;;;;;;29.20;14.47;;;1.10;99.90;;;;;;5094029;28;20173;-60
2021/12/23 13:23:22;;;;;;;31.40;14.93;;;1.10;99.90;;;;;;5093774;28;20528;-58
2021/12/23 13:25:58;;;;;;;31.77;14.73;;;1.20;99.90;;;;;;5093900;28;20512;-60
2021/12/23 13:28:30;;;;;;;31.37;14.23;;;1.20;99.90;;;;;;5092958;28;20224;-59
2021/12/23 13:30:57;;;;;;;28.70;14.27;;;1.20;99.90;;;;;;5093540;28;20206;-60
2021/12/23 13:33:24;;;;;;;31.70;14.43;;;1.20;99.90;;;;;;5093502;28;20237;-59
2021/12/23 13:35:50;;;;;;;33.23;14.83;;;1.20;99.90;;;;;;5093644;28;20234;-60
2021/12/23 13:38:36;;;;;;;27.77;14.20;;;1.20;99.90;;;;;;5092099;28;20222;-59